Airfield :
LOGIN :

Register | Disclaimer

   EN    FR    IT 

 










Legend :    VFR   Marginal VFR   IFR   Intensive IFR   Very Intensive IFR
Visi :
Ceiling :
>= 8 km
>= 3000ft
5 to 8 km
1000 to 3000 ft
1500m to 5 km
500 to 1000 ft
800 to 1500m
200 to 500 ft
< 800m
< 200 ft
Symbols :   Thunderstorms  Fog  Heavy snow  Heavy precipitations  Wind > 20 kt
SIGMETs :     Misc.  Thunderstorms  Icing  Turbulence  Mountain Waves  Volcanic Ashes






- Airport Elevation : 202 ft
- IATA code : LGW


EGKK - London Gatwick

CURRENT METAR :
  • 111550Z 08006KT 040V120 CAVOK 34/17 Q1013

EXPIRED METARs :
  • 111520Z 10005KT 060V150 CAVOK 33/17 Q1013
  • 111450Z VRB03KT CAVOK 33/17 Q1013
  • 111420Z 15006KT 090V210 CAVOK 33/17 Q1013
  • 111350Z 13006KT 080V200 CAVOK 33/17 Q1014
  • 111320Z VRB02KT CAVOK 32/15 Q1014
  • 111250Z 11005KT 080V140 CAVOK 33/15 Q1014

TAF TAF EGKK
Valid from the 11 at 12:00 until the 12 at 18:00 UTC


111105Z 1112/1218 07004KT CAVOK
PROB30
TEMPO 1113/1118 6000 SHRA
PROB40 1114/1118 18010KT
PROB30
TEMPO 1212/1218 4000 +SHRA



MET'MAP, your aeronautical weather chart ! - Copyright ORBIFLY December 2007 - Disclaimer

ORBIFLY MET'MAP TEAM :

Programming & Development : Alexandra Zaïnal
Concept & original design : Baudouin d'Aumeries
Assistance for programming : Marc-Olivier Méhu
Technical & hardware support : Manuel Goepfert

Contact : metmap@orbifly.com




SOURCES & CREDITS :

   NOAA